Time;durP1;ratioP1;P1;durP2;ratioP2;P2;SDS_P1;SDS_P2;PMS_P1;PMS_P2;Temp;Humidity;BMP_temperature;BMP_pressure;BME280_temperature;BME280_humidity;BME280_pressure;Samples;Min_cycle;Max_cycle;Signal;HPM_P1;HPM_P2
2023/09/10 00:00:25;;;;;;;22.85;20.65;;;;;;;17.28;100.00;101690.34;6158936;23;20025;-80
2023/09/10 00:02:50;;;;;;;23.58;21.25;;;;;;;17.16;100.00;101670.41;6185999;23;20075;-80
2023/09/10 00:05:19;;;;;;;25.55;22.92;;;;;;;17.33;100.00;101703.88;6185750;23;20441;-80
2023/09/10 00:07:44;;;;;;;24.90;22.30;;;;;;;17.44;100.00;101718.72;6159877;23;20032;-79
2023/09/10 00:10:10;;;;;;;30.42;26.35;;;;;;;17.41;100.00;101708.53;6185630;23;20020;-79
2023/09/10 00:12:35;;;;;;;28.67;25.88;;;;;;;17.40;100.00;101707.69;6185925;23;20009;-79
2023/09/10 00:15:01;;;;;;;31.85;28.55;;;;;;;17.42;100.00;101707.56;6186291;23;20458;-78
2023/09/10 00:17:26;;;;;;;28.42;25.52;;;;;;;17.37;100.00;101707.91;6185509;23;20035;-79
2023/09/10 00:19:51;;;;;;;29.52;26.58;;;;;;;17.18;100.00;101676.34;6185702;23;20087;-79
2023/09/10 00:22:17;;;;;;;33.95;30.48;;;;;;;17.13;100.00;101665.44;6185967;23;20415;-79
2023/09/10 00:24:42;;;;;;;35.80;32.08;;;;;;;17.08;100.00;101657.13;6186110;23;20019;-79
2023/09/10 00:27:07;;;;;;;32.92;29.92;;;;;;;17.35;100.00;101699.38;6185991;23;20445;-80
2023/09/10 00:29:33;;;;;;;33.03;29.67;;;;;;;17.39;100.00;101703.38;6185629;23;20331;-79
2023/09/10 00:31:58;;;;;;;33.33;29.98;;;;;;;17.34;100.00;101691.66;6186173;23;20350;-80
2023/09/10 00:34:23;;;;;;;33.70;30.23;;;;;;;17.37;100.00;101699.25;6186133;23;20012;-80
2023/09/10 00:36:49;;;;;;;31.98;28.75;;;;;;;17.27;100.00;101686.06;6186157;23;20088;-80
2023/09/10 00:39:14;;;;;;;32.83;29.48;;;;;;;17.28;100.00;101685.13;6185804;23;20012;-80
2023/09/10 00:41:40;;;;;;;32.80;29.70;;;;;;;17.13;100.00;101665.44;6185652;23;20051;-80
2023/09/10 00:44:05;;;;;;;34.00;30.88;;;;;;;17.31;100.00;101695.34;6185728;23;20096;-80
2023/09/10 00:46:31;;;;;;;34.55;30.90;;;;;;;17.32;100.00;101701.41;6185777;23;20005;-80
2023/09/10 00:48:58;;;;;;;36.70;33.00;;;;;;;17.13;100.00;101666.28;6186039;23;20001;-80
2023/09/10 00:51:24;;;;;;;34.97;31.58;;;;;;;17.10;100.00;101653.44;6135120;23;20009;-80
2023/09/10 00:53:49;;;;;;;34.83;31.17;;;;;;;17.31;100.00;101697.13;6185530;23;20443;-80
2023/09/10 00:56:15;;;;;;;36.08;32.42;;;;;;;17.09;100.00;101664.84;6185683;23;20008;-80
2023/09/10 00:58:41;;;;;;;38.42;34.53;;;;;;;17.31;100.00;101699.75;6185606;23;20012;-80
2023/09/10 01:01:08;;;;;;;36.38;32.70;;;;;;;17.12;100.00;101675.06;6185487;23;20005;-80
2023/09/10 01:03:35;;;;;;;41.55;37.47;;;;;;;17.31;100.00;101699.75;6185368;23;20001;-80
2023/09/10 01:06:00;;;;;;;44.22;39.88;;;;;;;17.27;100.00;101680.84;6185554;23;20076;-80
2023/09/10 01:08:26;;;;;;;39.95;36.05;;;;;;;17.11;100.00;101660.34;6185724;23;20481;-80
2023/09/10 01:10:51;;;;;;;42.13;35.97;;;;;;;17.32;100.00;101694.41;6185285;23;20000;-80
2023/09/10 01:13:50;;;;;;;42.78;38.47;;;;;;;17.32;100.00;101691.78;6185603;23;20005;-80
2023/09/10 01:16:28;;;;;;;41.97;37.78;;;;;;;17.21;100.00;101681.34;6158142;23;20063;-80
2023/09/10 01:19:03;;;;;;;44.38;39.72;;;;;;;17.33;100.00;101696.06;6185272;23;20008;-80
2023/09/10 01:21:48;;;;;;;40.30;36.30;;;;;;;17.32;100.00;101697.00;6185590;23;20007;-80
2023/09/10 01:24:35;;;;;;;41.08;36.90;;;;;;;17.28;100.00;101692.97;6185953;23;20001;-80
2023/09/10 01:27:00;;;;;;;42.05;38.05;;;;;;;17.30;100.00;101691.06;6158955;23;20023;-80
2023/09/10 01:29:26;;;;;;;40.13;36.03;;;;;;;17.27;100.00;101701.75;6185328;23;20037;-80
2023/09/10 01:31:56;;;;;;;41.83;37.70;;;;;;;17.17;100.00;101680.75;6185562;23;20033;-80
2023/09/10 01:34:27;;;;;;;39.70;35.77;;;;;;;17.23;100.00;101692.50;6185691;23;20009;-80
2023/09/10 01:36:57;;;;;;;41.60;37.67;;;;;;;17.25;100.00;101705.44;6185428;23;20021;-80
2023/09/10 01:39:27;;;;;;;40.30;36.35;;;;;;;17.11;100.00;101672.56;6184967;23;20438;-80
2023/09/10 01:41:53;;;;;;;40.13;36.13;;;;;;;17.21;100.00;101697.00;6185620;23;20013;-80
2023/09/10 01:44:21;;;;;;;42.33;37.28;;;;;;;17.20;100.00;101698.75;6184831;23;20023;-80
2023/09/10 01:46:49;;;;;;;42.78;38.70;;;;;;;17.05;100.00;101673.03;6185421;23;20091;-80
2023/09/10 01:49:15;;;;;;;41.35;37.20;;;;;;;17.10;100.00;101687.38;6185279;23;20016;-80
2023/09/10 01:51:40;;;;;;;41.15;37.15;;;;;;;17.18;100.00;101705.06;6185147;23;20005;-80
2023/09/10 01:54:05;;;;;;;40.28;36.20;;;;;;;17.13;100.00;101701.97;6185309;23;20009;-80
2023/09/10 01:56:31;;;;;;;41.47;37.40;;;;;;;17.16;100.00;101714.78;6158777;23;20021;-80
2023/09/10 01:58:56;;;;;;;41.70;37.75;;;;;;;17.17;100.00;101706.00;6184964;23;20080;-80
2023/09/10 02:01:21;;;;;;;44.00;39.55;;;;;;;17.19;100.00;101704.09;6185362;23;20005;-80
2023/09/10 02:03:47;;;;;;;42.63;38.55;;;;;;;17.14;100.00;101712.31;6185404;23;20005;-80
2023/09/10 02:06:12;;;;;;;41.63;37.63;;;;;;;16.97;100.00;101681.44;6185409;23;20008;-80
2023/09/10 02:08:37;;;;;;;42.72;38.35;;;;;;;17.14;100.00;101708.88;6184842;23;20005;-80
2023/09/10 02:11:05;;;;;;;44.03;39.70;;;;;;;17.13;100.00;101712.44;6185264;23;20024;-80
2023/09/10 02:13:31;;;;;;;43.58;39.13;;;;;;;17.09;100.00;101709.19;6184981;23;20005;-80
2023/09/10 02:15:56;;;;;;;43.00;38.72;;;;;;;17.09;100.00;101718.81;6184763;23;20163;-80
2023/09/10 02:18:22;;;;;;;45.22;40.83;;;;;;;17.00;100.00;101703.84;6184743;23;20001;-80
2023/09/10 02:20:47;;;;;;;40.30;36.40;;;;;;;17.08;100.00;101715.38;6185057;23;20005;-80
2023/09/10 02:23:13;;;;;;;43.08;38.78;;;;;;;17.08;100.00;101717.16;6185383;23;20013;-80
2023/09/10 02:25:38;;;;;;;42.67;38.55;;;;;;;17.06;100.00;101717.28;6184959;23;20005;-80
2023/09/10 02:28:04;;;;;;;46.50;41.80;;;;;;;16.89;100.00;101686.41;6184833;23;20008;-80
2023/09/10 02:30:29;;;;;;;48.63;43.80;;;;;;;16.94;100.00;101696.50;6184816;23;20137;-80
2023/09/10 02:32:55;;;;;;;47.13;42.47;;;;;;;17.02;100.00;101704.59;6185031;23;20012;-80
2023/09/10 02:35:21;;;;;;;45.05;40.55;;;;;;;16.79;100.00;101675.84;6185114;23;20051;-80
2023/09/10 02:37:47;;;;;;;44.78;40.25;;;;;;;16.50;100.00;101635.44;6185018;23;20132;-80
2023/09/10 02:40:12;;;;;;;49.40;44.25;;;;;;;16.78;100.00;101681.16;6184497;23;20005;-80
2023/09/10 02:42:39;;;;;;;45.42;41.00;;;;;;;16.87;100.00;101696.97;6186861;23;20383;-80
2023/09/10 02:45:05;;;;;;;44.00;39.75;;;;;;;16.94;100.00;101715.59;6186703;23;20012;-80
2023/09/10 02:47:30;;;;;;;47.95;43.05;;;;;;;16.86;100.00;101700.53;6187116;23;20009;-80
2023/09/10 02:49:56;;;;;;;45.63;41.05;;;;;;;16.89;100.00;101704.66;6186238;23;20381;-80
2023/09/10 02:52:24;;;;;;;49.05;43.97;;;;;;;16.83;100.00;101694.72;6187215;23;20009;-79
2023/09/10 02:54:50;;;;;;;54.65;48.80;;;;;;;16.89;100.00;101700.28;6160181;23;20005;-80
2023/09/10 02:57:15;;;;;;;54.17;48.65;;;;;;;16.97;100.00;101717.13;6187438;23;20012;-80
2023/09/10 02:59:41;;;;;;;47.75;42.80;;;;;;;16.94;100.00;101706.94;6186795;23;20005;-80
2023/09/10 03:02:06;;;;;;;47.80;42.90;;;;;;;16.93;100.00;101713.94;6186892;23;20001;-80
2023/09/10 03:04:31;;;;;;;52.00;46.60;;;;;;;16.89;100.00;101709.88;6186692;23;20000;-80
2023/09/10 03:06:57;;;;;;;48.28;43.40;;;;;;;16.87;100.00;101717.84;6187084;23;20079;-80
2023/09/10 03:09:22;;;;;;;48.40;43.60;;;;;;;16.85;100.00;101718.91;6186613;23;20024;-80
2023/09/10 03:11:47;;;;;;;49.08;44.33;;;;;;;16.43;100.00;101650.72;6187099;23;20068;-80
2023/09/10 03:14:13;;;;;;;49.35;44.42;;;;;;;16.81;100.00;101710.50;6186921;23;20005;-80
2023/09/10 03:16:39;;;;;;;47.47;42.70;;;;;;;16.80;100.00;101714.00;6186468;23;20005;-79
2023/09/10 03:19:05;;;;;;;47.63;42.63;;;;;;;16.83;100.00;101712.97;6185267;23;20008;-80
2023/09/10 03:21:30;;;;;;;46.88;42.33;;;;;;;16.83;100.00;101711.19;6186616;23;20334;-80
2023/09/10 03:23:56;;;;;;;50.60;45.58;;;;;;;16.81;100.00;101705.28;6186675;23;20001;-80
2023/09/10 03:26:22;;;;;;;52.03;46.67;;;;;;;16.70;100.00;101689.56;6186845;23;20005;-80
2023/09/10 03:28:47;;;;;;;63.15;56.55;;;;;;;16.90;100.00;101704.53;6186943;23;20028;-80
2023/09/10 03:31:13;;;;;;;60.13;54.13;;;;;;;16.87;100.00;101703.97;6186646;23;20012;-80
2023/09/10 03:33:39;;;;;;;52.85;47.63;;;;;;;16.86;100.00;101704.91;6186596;23;20005;-80
2023/09/10 03:36:05;;;;;;;57.05;51.15;;;;;;;16.79;100.00;101694.09;6186296;23;20009;-80
2023/09/10 03:38:31;;;;;;;62.42;56.17;;;;;;;16.87;100.00;101699.56;6186215;23;20009;-79
2023/09/10 03:40:56;;;;;;;61.15;54.95;;;;;;;16.73;100.00;101680.69;6186827;23;20305;-80
2023/09/10 03:43:22;;;;;;;55.92;50.28;;;;;;;16.47;100.00;101643.50;6186175;23;20072;-79
2023/09/10 03:45:47;;;;;;;59.55;53.33;;;;;;;16.83;100.00;101705.16;6159732;23;20078;-79
2023/09/10 03:48:15;;;;;;;56.38;50.67;;;;;;;16.84;100.00;101698.97;6186290;23;20032;-80
2023/09/10 03:50:41;;;;;;;69.38;62.20;;;;;;;16.86;100.00;101708.34;6186272;23;20009;-80
2023/09/10 03:53:07;;;;;;;62.38;56.15;;;;;;;16.83;100.00;101698.16;6186110;23;20323;-80
2023/09/10 03:55:32;;;;;;;62.33;55.83;;;;;;;16.83;100.00;101698.16;6186073;23;20001;-80
2023/09/10 03:57:58;;;;;;;62.95;56.65;;;;;;;16.82;100.00;101695.66;6186543;23;20438;-80
2023/09/10 04:00:23;;;;;;;62.10;55.70;;;;;;;16.74;100.00;101684.97;6185952;23;20009;-80
2023/09/10 04:02:49;;;;;;;66.47;59.58;;;;;;;16.80;100.00;101695.75;6185923;23;20374;-80
2023/09/10 04:05:15;;;;;;;64.10;57.38;;;;;;;16.81;100.00;101692.22;6186437;23;20374;-80
2023/09/10 04:07:40;;;;;;;66.47;59.60;;;;;;;16.78;100.00;101684.59;6186510;23;20009;-80
2023/09/10 04:10:09;;;;;;;67.97;61.15;;;;;;;16.81;100.00;101689.63;6186042;23;20017;-80
2023/09/10 04:12:35;;;;;;;65.63;59.00;;;;;;;16.66;100.00;101663.81;6186134;23;20001;-80
2023/09/10 04:15:00;;;;;;;72.63;65.30;;;;;;;16.81;100.00;101689.63;6186099;23;20005;-80
2023/09/10 04:17:28;;;;;;;65.55;58.95;;;;;;;16.50;100.00;101638.03;6186517;23;20080;-80
2023/09/10 04:19:54;;;;;;;71.55;64.03;;;;;;;16.76;100.00;101686.50;6186427;23;20005;-80
2023/09/10 04:22:20;;;;;;;67.90;60.72;;;;;;;16.73;100.00;101684.13;6186070;23;20032;-80
2023/09/10 04:24:45;;;;;;;70.72;63.40;;;;;;;16.75;100.00;101681.41;6186295;23;20004;-80
2023/09/10 04:27:10;;;;;;;68.05;61.05;;;;;;;16.75;100.00;101686.63;6185901;23;20001;-80
2023/09/10 04:29:36;;;;;;;71.25;63.67;;;;;;;16.68;100.00;101675.81;6186113;23;20038;-79
2023/09/10 04:32:01;;;;;;;71.15;64.00;;;;;;;16.74;100.00;101684.97;6158813;23;20080;-80
2023/09/10 04:34:27;;;;;;;81.38;72.82;;;;;;;16.79;100.00;101682.84;6185820;23;20085;-79
2023/09/10 04:36:52;;;;;;;81.15;72.63;;;;;;;16.62;100.00;101660.63;6185959;23;20008;-80
2023/09/10 04:39:19;;;;;;;80.53;71.95;;;;;;;16.64;100.00;101656.09;6186233;23;20060;-80
2023/09/10 04:41:44;;;;;;;75.32;67.22;;;;;;;16.80;100.00;101684.50;6185727;23;20009;-80
2023/09/10 04:44:10;;;;;;;77.05;69.30;;;;;;;16.74;100.00;101683.19;6153878;23;20025;-80
2023/09/10 04:46:35;;;;;;;75.20;67.50;;;;;;;16.81;100.00;101692.22;6185915;23;20380;-80
2023/09/10 04:49:00;;;;;;;76.10;68.28;;;;;;;16.43;100.00;101631.66;6185565;23;20470;-80
2023/09/10 04:51:25;;;;;;;73.15;65.57;;;;;;;16.26;100.00;101610.28;6185807;23;20083;-80
2023/09/10 04:53:51;;;;;;;75.85;68.18;;;;;;;16.50;100.00;101645.88;6159052;23;20036;-80
2023/09/10 04:56:17;;;;;;;75.25;67.28;;;;;;;16.74;100.00;101684.97;6185738;23;20055;-80
2023/09/10 04:58:42;;;;;;;79.22;71.05;;;;;;;16.76;100.00;101693.50;6185909;23;20407;-80
2023/09/10 05:01:07;;;;;;;77.95;70.05;;;;;;;16.67;100.00;101674.13;6159208;23;20009;-80
2023/09/10 05:03:33;;;;;;;75.00;67.50;;;;;;;16.75;100.00;101684.84;6185317;23;20011;-80
2023/09/10 05:06:00;;;;;;;75.82;68.22;;;;;;;16.59;100.00;101668.66;6185652;23;20374;-80
2023/09/10 05:08:27;;;;;;;84.28;75.63;;;;;;;16.78;100.00;101687.22;6185391;23;20076;-78
2023/09/10 05:10:52;;;;;;;80.32;72.28;;;;;;;16.78;100.00;101691.59;6185452;23;20478;-79
2023/09/10 05:13:18;;;;;;;79.72;71.45;;;;;;;16.54;100.00;101653.38;6186052;23;20009;-79
2023/09/10 05:15:48;;;;;;;75.65;67.88;;;;;;;16.76;100.00;101702.16;6185660;23;20419;-79
2023/09/10 05:18:13;;;;;;;78.97;71.03;;;;;;;16.73;100.00;101689.34;6185561;23;20009;-79
2023/09/10 05:20:39;;;;;;;68.07;60.95;;;;;;;16.97;100.00;101702.31;6185483;23;20083;-81
2023/09/10 05:23:04;;;;;;;60.63;54.10;;;;;;;16.97;100.00;101675.38;6185888;23;20068;-81
2023/09/10 05:25:29;;;;;;;60.88;54.65;;;;;;;17.26;100.00;101694.03;6185182;23;20008;-81
2023/09/10 05:27:55;;;;;;;69.32;62.25;;;;;;;17.36;100.00;101708.03;6185427;23;20008;-81
2023/09/10 05:30:20;;;;;;;66.88;60.10;;;;;;;17.40;100.00;101710.31;6185516;23;20001;-81
2023/09/10 05:32:45;;;;;;;61.30;55.15;;;;;;;17.58;100.00;101699.34;6185578;23;20009;-80
2023/09/10 05:35:11;;;;;;;63.60;57.03;;;;;;;17.61;100.00;101691.28;6185741;23;20028;-79
2023/09/10 05:37:36;;;;;;;67.03;60.10;;;;;;;17.67;100.00;101702.06;6158382;23;20339;-81
2023/09/10 05:40:03;;;;;;;62.25;55.95;;;;;;;17.75;100.00;101698.88;6185352;23;20012;-81
2023/09/10 05:42:28;;;;;;;63.30;56.53;;;;;;;17.93;100.00;101712.28;6184962;23;20001;-80
2023/09/10 05:44:54;;;;;;;66.70;59.95;;;;;;;18.02;100.00;101712.38;6185618;23;20016;-81
2023/09/10 05:47:20;;;;;;;67.30;60.17;;;;;;;18.03;100.00;101714.03;6185445;23;20005;-81
2023/09/10 05:49:47;;;;;;;63.20;56.90;;;;;;;17.88;100.00;101668.19;6185443;23;20004;-81
2023/09/10 05:52:13;;;;;;;64.32;57.83;;;;;;;18.27;100.00;101715.59;6185328;23;20008;-80
2023/09/10 05:54:38;;;;;;;63.00;56.72;;;;;;;18.38;100.00;101717.34;6185450;23;20459;-81
2023/09/10 05:57:04;;;;;;;64.88;58.22;;;;;;;18.47;100.00;101717.41;6185571;23;20339;-80
2023/09/10 05:59:29;;;;;;;59.65;53.35;;;;;;;18.37;100.00;101695.59;6185364;23;20009;-81
2023/09/10 06:01:54;;;;;;;64.63;58.17;;;;;;;18.62;100.00;101724.00;6185085;23;20423;-81
2023/09/10 06:04:20;;;;;;;63.95;57.47;;;;;;;18.71;100.00;101721.63;6184008;23;20009;-81
2023/09/10 06:06:45;;;;;;;58.63;52.63;;;;;;;18.89;100.00;101723.53;6185818;23;20012;-81
2023/09/10 06:09:10;;;;;;;67.80;61.05;;;;;;;18.96;100.00;101733.47;6185575;23;20004;-81
2023/09/10 06:11:36;;;;;;;67.35;60.35;;;;;;;18.89;100.00;101713.06;6185313;23;20001;-80
2023/09/10 06:14:01;;;;;;;61.00;54.85;;;;;;;19.13;100.00;101741.56;6185372;23;20439;-80
2023/09/10 06:16:26;;;;;;;66.70;60.08;;;;;;;19.22;100.00;101739.97;6185198;23;20040;-81
2023/09/10 06:18:52;;;;;;;67.38;60.38;;;;;;;19.35;100.00;101745.81;6185044;23;20396;-82
2023/09/10 06:21:17;;;;;;;62.08;55.90;;;;;;;19.52;100.00;101746.16;6184774;23;20423;-82
2023/09/10 06:23:43;;;;;;;60.58;54.75;;;;;;;19.85;100.00;101745.03;6158550;23;20208;-81
2023/09/10 06:26:08;;;;;;;61.30;55.08;;;;;;;20.39;100.00;101744.56;6184894;23;20020;-85
2023/09/10 06:28:33;;;;;;;52.08;46.63;;;;;;;21.34;100.00;101749.84;6158366;23;20017;-80
2023/09/10 06:30:59;;;;;;;53.13;47.85;;;;;;;22.09;100.00;101760.25;6185074;23;19998;-81
2023/09/10 06:33:24;;;;;;;51.72;46.65;;;;;;;22.51;99.64;101724.44;6184646;23;20008;-79
2023/09/10 06:35:50;;;;;;;54.88;49.28;;;;;;;23.07;95.83;101725.03;6186155;23;20008;-80
2023/09/10 06:38:15;;;;;;;52.20;47.17;;;;;;;23.80;91.97;101757.03;6184682;23;20406;-81
2023/09/10 06:40:40;;;;;;;54.33;49.22;;;;;;;24.12;89.69;101756.25;6184502;23;20418;-81
2023/09/10 06:43:08;;;;;;;52.50;47.30;;;;;;;24.53;85.90;101749.22;6184557;23;20009;-79
2023/09/10 06:45:33;;;;;;;52.33;46.72;;;;;;;24.84;83.20;101727.41;6184705;23;20098;-80
2023/09/10 06:47:59;;;;;;;49.88;44.92;;;;;;;25.08;81.18;101714.16;6184815;23;20416;-80
2023/09/10 06:50:24;;;;;;;50.00;45.20;;;;;;;25.67;79.11;101751.59;6184226;23;20430;-80
2023/09/10 06:52:49;;;;;;;50.35;45.00;;;;;;;25.99;77.02;101752.44;6185092;23;20009;-80
2023/09/10 06:55:15;;;;;;;50.25;45.42;;;;;;;25.93;75.77;101713.44;6184842;23;20427;-81
2023/09/10 06:57:40;;;;;;;46.45;41.45;;;;;;;26.30;73.00;101725.91;6184639;23;20001;-80
2023/09/10 07:00:21;;;;;;;47.78;42.95;;;;;;;26.07;76.60;101627.16;6178624;23;20013;-79
2023/09/10 07:02:53;;;;;;;49.53;44.72;;;;;;;26.51;73.85;101702.22;6185010;23;20029;-81
2023/09/10 07:05:18;;;;;;;47.83;43.00;;;;;;;26.46;70.11;101670.19;6184725;23;20076;-81
2023/09/10 07:07:44;;;;;;;47.35;42.83;;;;;;;26.80;69.96;101717.34;6183227;23;20029;-81
2023/09/10 07:10:10;;;;;;;44.25;40.00;;;;;;;26.44;71.54;101756.91;6184554;23;20012;-82
2023/09/10 07:12:36;;;;;;;47.00;42.20;;;;;;;25.54;74.70;101753.13;6184860;23;20063;-82
2023/09/10 07:15:02;;;;;;;51.72;46.85;;;;;;;24.52;78.12;101712.41;6184990;23;20006;-81
2023/09/10 07:17:27;;;;;;;46.13;41.80;;;;;;;24.01;81.95;101736.28;6157564;23;20084;-82
2023/09/10 07:19:52;;;;;;;46.70;42.17;;;;;;;23.78;84.69;101755.50;6184775;23;20474;-82
2023/09/10 07:22:18;;;;;;;51.72;46.67;;;;;;;23.42;86.33;101759.16;6184756;23;20424;-82
2023/09/10 07:24:43;;;;;;;49.65;44.85;;;;;;;23.17;88.42;101757.38;6184571;23;20059;-81
2023/09/10 07:27:09;;;;;;;49.47;44.58;;;;;;;22.89;89.74;101735.63;6185163;23;20005;-82
2023/09/10 07:29:34;;;;;;;47.35;42.55;;;;;;;22.70;91.58;101728.72;6186947;23;20005;-81
2023/09/10 07:31:59;;;;;;;53.78;48.60;;;;;;;22.73;93.21;101754.75;6186881;23;20092;-81
2023/09/10 07:34:28;;;;;;;49.35;44.65;;;;;;;22.54;93.13;101729.44;6186597;23;20009;-80
2023/09/10 07:36:53;;;;;;;49.47;44.70;;;;;;;22.33;93.15;101700.00;6184724;23;20144;-79
2023/09/10 07:39:22;;;;;;;51.40;46.30;;;;;;;22.70;94.20;101756.84;6187348;23;20052;-79
2023/09/10 07:41:47;;;;;;;47.65;43.08;;;;;;;22.63;95.28;101747.94;6187059;23;20001;-80
2023/09/10 07:44:13;;;;;;;45.60;41.03;;;;;;;22.73;94.79;101752.13;6186089;23;20072;-79
2023/09/10 07:46:38;;;;;;;47.58;42.88;;;;;;;22.48;93.89;101705.50;6186177;23;20012;-78
2023/09/10 07:49:03;;;;;;;52.90;47.72;;;;;;;22.78;95.67;101755.09;6186395;23;20044;-80
2023/09/10 07:51:29;;;;;;;54.50;49.13;;;;;;;22.57;95.80;101718.59;6185963;23;20032;-80
2023/09/10 07:53:54;;;;;;;50.00;45.42;;;;;;;22.82;95.55;101751.19;6185961;23;20005;-80
2023/09/10 07:56:19;;;;;;;50.10;45.17;;;;;;;22.90;95.72;101755.72;6186142;23;20141;-79
2023/09/10 07:58:45;;;;;;;47.75;43.10;;;;;;;22.95;95.39;101760.53;6186378;23;20005;-80
2023/09/10 08:01:10;;;;;;;51.58;46.30;;;;;;;23.00;94.99;101766.97;6186338;23;20009;-80
2023/09/10 08:03:37;;;;;;;48.70;43.95;;;;;;;23.04;96.52;101763.06;6186582;23;20051;-80
2023/09/10 08:06:03;;;;;;;50.13;45.22;;;;;;;23.10;95.44;101766.88;6185998;23;20005;-79
2023/09/10 08:08:28;;;;;;;50.55;45.40;;;;;;;23.01;95.90;101746.72;6159342;23;20005;-80
2023/09/10 08:10:54;;;;;;;52.50;47.30;;;;;;;23.19;96.17;101773.84;6185922;23;20005;-79
2023/09/10 08:13:20;;;;;;;49.95;44.95;;;;;;;23.23;97.13;101779.66;6186208;23;20001;-79
2023/09/10 08:15:46;;;;;;;49.72;44.85;;;;;;;23.22;96.49;101762.19;6186372;23;20322;-80
2023/09/10 08:18:12;;;;;;;48.15;43.33;;;;;;;23.40;96.66;101773.44;6186176;23;20005;-81
2023/09/10 08:20:42;;;;;;;43.17;39.05;;;;;;;23.47;96.13;101774.47;6185798;23;20013;-80
2023/09/10 08:23:08;;;;;;;45.03;40.55;;;;;;;23.54;95.22;101770.25;6185949;23;20075;-80
2023/09/10 08:25:33;;;;;;;42.47;38.38;;;;;;;23.63;94.97;101771.97;6186033;23;20083;-80
2023/09/10 08:27:59;;;;;;;41.90;37.92;;;;;;;23.66;95.08;101768.16;6186286;23;20465;-79
2023/09/10 08:30:27;;;;;;;43.33;38.97;;;;;;;23.73;94.45;101767.38;6159402;23;20021;-79
2023/09/10 08:32:52;;;;;;;43.10;38.70;;;;;;;23.73;94.04;101759.47;6186174;23;20012;-80
2023/09/10 08:35:18;;;;;;;41.17;37.00;;;;;;;23.83;94.79;101758.50;6185842;23;20009;-80
2023/09/10 08:37:44;;;;;;;39.88;35.75;;;;;;;23.93;95.16;101759.19;6186114;23;20074;-80
2023/09/10 08:40:10;;;;;;;39.83;35.97;;;;;;;23.91;94.77;101746.16;6185407;23;20470;-81
2023/09/10 08:42:55;;;;;;;38.95;35.35;;;;;;;23.69;93.27;101705.38;6185686;23;20144;-80
2023/09/10 08:45:24;;;;;;;36.65;32.90;;;;;;;24.15;94.41;101763.03;6185749;23;20024;-81
2023/09/10 08:47:54;;;;;;;34.83;31.23;;;;;;;24.27;95.79;101756.44;6186250;23;20001;-79
2023/09/10 08:50:21;;;;;;;34.10;30.70;;;;;;;24.14;92.58;101730.53;6185765;23;20032;-79
2023/09/10 08:52:49;;;;;;;32.58;29.30;;;;;;;24.34;93.13;101762.75;6159158;23;20355;-80
2023/09/10 08:55:14;;;;;;;31.10;27.95;;;;;;;24.45;91.65;101765.06;6185652;23;20108;-81
2023/09/10 08:57:41;;;;;;;31.30;28.08;;;;;;;24.55;92.59;101764.91;6185969;23;20008;-81
2023/09/10 09:00:12;;;;;;;32.15;28.95;;;;;;;24.62;94.29;101757.97;6185527;23;20005;-80
2023/09/10 09:02:39;;;;;;;31.60;28.13;;;;;;;24.65;91.92;101760.28;6186028;23;20001;-80
2023/09/10 09:05:05;;;;;;;30.05;27.00;;;;;;;24.72;90.94;101763.09;6186032;23;20005;-80
2023/09/10 09:07:42;;;;;;;27.67;24.75;;;;;;;24.77;92.89;101747.53;6185393;23;20008;-80
2023/09/10 09:10:10;;;;;;;27.77;25.00;;;;;;;24.91;92.86;101759.25;6185450;23;20005;-81
2023/09/10 09:12:38;;;;;;;26.48;23.77;;;;;;;24.95;92.86;101757.91;6185557;23;20454;-79
2023/09/10 09:15:05;;;;;;;27.58;24.67;;;;;;;25.04;92.78;101757.78;6185867;23;20019;-79
2023/09/10 09:17:32;;;;;;;27.70;24.70;;;;;;;25.11;91.51;101761.41;6185619;23;20082;-80
2023/09/10 09:20:01;;;;;;;30.95;22.88;;;;;;;25.19;92.59;101752.63;6185708;23;20009;-80
2023/09/10 09:22:31;;;;;;;25.77;21.90;;;;;;;25.16;89.73;101737.91;6185286;23;20012;-79
2023/09/10 09:24:57;;;;;;;27.35;23.13;;;;;;;25.32;89.88;101746.78;6158598;23;20013;-80
2023/09/10 09:27:25;;;;;;;21.13;16.75;;;;;;;25.27;88.19;101727.97;6185495;23;20016;-80
2023/09/10 09:29:52;;;;;;;16.77;14.27;;;;;;;25.46;87.27;101754.00;6185674;23;20080;-79
2023/09/10 09:32:17;;;;;;;18.33;15.02;;;;;;;25.50;86.32;101751.84;6184945;23;20001;-79
2023/09/10 09:34:43;;;;;;;20.85;15.48;;;;;;;25.55;87.24;101745.03;6185228;23;20028;-78
2023/09/10 09:37:08;;;;;;;21.55;16.58;;;;;;;25.64;88.00;101751.09;6185201;23;20092;-79
2023/09/10 09:39:34;;;;;;;17.38;15.50;;;;;;;25.68;86.55;101739.19;6185295;23;20390;-78
2023/09/10 09:42:00;;;;;;;20.23;14.63;;;;;;;25.60;85.10;101715.44;6185366;23;20071;-80
2023/09/10 09:44:26;;;;;;;15.93;14.23;;;;;;;25.84;86.00;101754.16;6185098;23;20021;-79
2023/09/10 09:46:56;;;;;;;18.80;13.02;;;;;;;25.97;87.30;101744.69;6185610;23;20044;-79
2023/09/10 09:49:21;;;;;;;18.98;13.23;;;;;;;25.99;85.38;101740.03;6158360;23;20005;-78
2023/09/10 09:51:48;;;;;;;14.63;12.48;;;;;;;26.06;84.64;101734.03;6184648;23;20424;-80
2023/09/10 09:54:13;;;;;;;14.70;11.95;;;;;;;26.17;82.05;101734.44;6185104;23;20001;-79
2023/09/10 09:56:38;;;;;;;17.95;12.80;;;;;;;26.15;82.74;101722.38;6185100;23;20015;-79
2023/09/10 09:59:06;;;;;;;12.55;9.82;;;;;;;26.12;81.06;101720.91;6184804;23;20067;-79
2023/09/10 10:01:34;;;;;;;14.52;9.55;;;;;;;26.29;81.53;101727.72;6185075;23;20005;-80
2023/09/10 10:03:59;;;;;;;15.55;12.80;;;;;;;26.22;83.24;101704.78;6185326;23;20012;-79
2023/09/10 10:06:24;;;;;;;18.35;12.77;;;;;;;26.51;83.51;101719.97;6184438;23;20005;-80
2023/09/10 10:08:51;;;;;;;19.58;12.60;;;;;;;26.54;81.07;101725.72;6184597;23;20343;-79
2023/09/10 10:11:29;;;;;;;17.45;13.02;;;;;;;26.67;82.92;101726.94;6183393;23;20096;-77
2023/09/10 10:13:58;;;;;;;16.52;12.18;;;;;;;26.51;82.01;101696.13;6185868;23;20005;-76
2023/09/10 10:16:26;;;;;;;16.10;11.48;;;;;;;26.76;81.76;101718.72;6185424;23;20031;-77
2023/09/10 10:18:53;;;;;;;17.58;12.32;;;;;;;26.71;79.88;101722.91;6184979;23;20005;-78
2023/09/10 10:21:20;;;;;;;16.02;12.38;;;;;;;26.80;80.80;101721.84;6184770;23;20075;-79
2023/09/10 10:23:45;;;;;;;14.65;11.95;;;;;;;26.81;82.16;101719.00;6185015;23;20005;-79
2023/09/10 10:26:12;;;;;;;15.80;11.40;;;;;;;26.85;81.79;101693.78;6184878;23;20088;-79
2023/09/10 10:28:39;;;;;;;17.88;12.07;;;;;;;27.00;81.80;101716.81;6185396;23;20028;-77
2023/09/10 10:31:09;;;;;;;15.40;10.73;;;;;;;27.02;81.17;101720.09;6185459;23;20005;-78
2023/09/10 10:33:37;;;;;;;15.07;10.27;;;;;;;27.07;80.83;101715.94;6184635;23;20494;-78
2023/09/10 10:36:45;;;;;;;15.68;10.57;;;;;;;27.13;80.91;101715.19;6158380;23;20005;-78
2023/09/10 10:39:10;;;;;;;13.77;10.10;;;;;;;27.18;78.47;101713.81;6093529;23;20036;-79
2023/09/10 10:41:42;;;;;;;12.25;8.65;;;;;;;27.26;76.24;101716.38;6093824;23;20089;-79
2023/09/10 10:44:21;;;;;;;13.57;8.57;;;;;;;27.33;77.41;101707.47;6093515;23;20015;-78
2023/09/10 10:46:58;;;;;;;12.88;8.90;;;;;;;27.41;76.05;101719.81;6093764;23;20029;-79
2023/09/10 10:49:25;;;;;;;13.73;8.90;;;;;;;27.21;74.30;101676.31;6069775;23;20014;-79
2023/09/10 10:51:54;;;;;;;13.25;9.00;;;;;;;27.44;74.74;101711.50;6094138;23;20006;-78
2023/09/10 10:54:20;;;;;;;9.18;7.70;;;;;;;27.46;73.81;101704.19;6093827;23;20010;-79
2023/09/10 10:56:46;;;;;;;13.57;8.32;;;;;;;27.53;73.43;101713.06;6093727;23;20010;-79
2023/09/10 10:59:12;;;;;;;10.65;7.72;;;;;;;27.36;72.62;101663.88;6093654;23;20014;-78
2023/09/10 11:01:38;;;;;;;11.80;8.18;;;;;;;27.64;74.04;101693.16;6093818;23;20011;-78